sensor_id;sensor_type;location;lat;lon;timestamp;temperature;humidity
14101;DHT22;7127;49.372;8.166;2024-03-08T00:01:45;11.00;46.90
14101;DHT22;7127;49.372;8.166;2024-03-08T00:04:12;10.90;47.00
14101;DHT22;7127;49.372;8.166;2024-03-08T00:06:40;10.80;46.90
14101;DHT22;7127;49.372;8.166;2024-03-08T00:09:06;10.80;47.00
14101;DHT22;7127;49.372;8.166;2024-03-08T00:11:34;10.70;47.00
14101;DHT22;7127;49.372;8.166;2024-03-08T00:14:01;10.70;47.00
14101;DHT22;7127;49.372;8.166;2024-03-08T00:16:27;10.80;47.00
14101;DHT22;7127;49.372;8.166;2024-03-08T00:18:54;10.60;47.00
14101;DHT22;7127;49.372;8.166;2024-03-08T00:21:21;10.50;47.00
14101;DHT22;7127;49.372;8.166;2024-03-08T00:23:49;10.50;47.10
14101;DHT22;7127;49.372;8.166;2024-03-08T00:26:16;10.60;47.20
14101;DHT22;7127;49.372;8.166;2024-03-08T00:28:43;10.40;47.10
14101;DHT22;7127;49.372;8.166;2024-03-08T00:31:10;10.30;47.20
14101;DHT22;7127;49.372;8.166;2024-03-08T00:33:37;10.20;47.10
14101;DHT22;7127;49.372;8.166;2024-03-08T00:36:05;10.20;47.10
14101;DHT22;7127;49.372;8.166;2024-03-08T00:38:33;10.10;47.10
14101;DHT22;7127;49.372;8.166;2024-03-08T00:41:01;10.00;47.00
14101;DHT22;7127;49.372;8.166;2024-03-08T00:43:28;10.00;47.20
14101;DHT22;7127;49.372;8.166;2024-03-08T00:45:55;9.90;48.00
14101;DHT22;7127;49.372;8.166;2024-03-08T00:48:23;9.90;48.10
14101;DHT22;7127;49.372;8.166;2024-03-08T00:50:50;9.80;48.20
14101;DHT22;7127;49.372;8.166;2024-03-08T00:53:17;9.70;48.20
14101;DHT22;7127;49.372;8.166;2024-03-08T00:55:43;9.80;48.40
14101;DHT22;7127;49.372;8.166;2024-03-08T00:58:13;9.70;48.40
14101;DHT22;7127;49.372;8.166;2024-03-08T01:00:40;9.70;48.50
14101;DHT22;7127;49.372;8.166;2024-03-08T01:03:06;9.60;48.40
14101;DHT22;7127;49.372;8.166;2024-03-08T01:05:33;9.60;48.40
14101;DHT22;7127;49.372;8.166;2024-03-08T01:08:02;9.60;48.40
14101;DHT22;7127;49.372;8.166;2024-03-08T01:10:30;9.50;48.40
14101;DHT22;7127;49.372;8.166;2024-03-08T01:12:57;9.50;48.50
14101;DHT22;7127;49.372;8.166;2024-03-08T01:15:26;9.50;48.50
14101;DHT22;7127;49.372;8.166;2024-03-08T01:17:53;9.40;48.50
14101;DHT22;7127;49.372;8.166;2024-03-08T01:20:20;9.40;48.50
14101;DHT22;7127;49.372;8.166;2024-03-08T01:22:47;9.40;48.80
14101;DHT22;7127;49.372;8.166;2024-03-08T01:25:14;9.30;48.70
14101;DHT22;7127;49.372;8.166;2024-03-08T01:27:41;9.30;48.70
14101;DHT22;7127;49.372;8.166;2024-03-08T01:30:08;9.30;48.70
14101;DHT22;7127;49.372;8.166;2024-03-08T01:32:37;9.20;48.70
14101;DHT22;7127;49.372;8.166;2024-03-08T01:35:05;9.30;48.80
14101;DHT22;7127;49.372;8.166;2024-03-08T01:37:34;9.20;48.80
14101;DHT22;7127;49.372;8.166;2024-03-08T01:40:02;9.20;48.80
14101;DHT22;7127;49.372;8.166;2024-03-08T01:42:29;9.10;48.70
14101;DHT22;7127;49.372;8.166;2024-03-08T01:44:56;9.10;48.70
14101;DHT22;7127;49.372;8.166;2024-03-08T01:47:23;9.10;48.80
14101;DHT22;7127;49.372;8.166;2024-03-08T01:49:52;9.10;48.90
14101;DHT22;7127;49.372;8.166;2024-03-08T01:52:19;9.10;48.90
14101;DHT22;7127;49.372;8.166;2024-03-08T01:54:46;9.00;48.80
14101;DHT22;7127;49.372;8.166;2024-03-08T01:57:13;9.00;48.90
14101;DHT22;7127;49.372;8.166;2024-03-08T01:59:40;9.00;48.90
14101;DHT22;7127;49.372;8.166;2024-03-08T02:02:09;9.00;48.90
14101;DHT22;7127;49.372;8.166;2024-03-08T02:04:39;9.00;48.90
14101;DHT22;7127;49.372;8.166;2024-03-08T02:07:07;9.00;48.90
14101;DHT22;7127;49.372;8.166;2024-03-08T02:09:34;8.90;48.90
14101;DHT22;7127;49.372;8.166;2024-03-08T02:12:01;8.90;48.90
14101;DHT22;7127;49.372;8.166;2024-03-08T02:14:28;8.90;48.90
14101;DHT22;7127;49.372;8.166;2024-03-08T02:17:00;8.90;48.90
14101;DHT22;7127;49.372;8.166;2024-03-08T02:19:27;8.90;49.50
14101;DHT22;7127;49.372;8.166;2024-03-08T02:21:55;8.80;48.90
14101;DHT22;7127;49.372;8.166;2024-03-08T02:24:23;8.80;48.90
14101;DHT22;7127;49.372;8.166;2024-03-08T02:26:51;8.80;49.00
14101;DHT22;7127;49.372;8.166;2024-03-08T02:29:19;8.80;49.10
14101;DHT22;7127;49.372;8.166;2024-03-08T02:31:47;8.70;49.10
14101;DHT22;7127;49.372;8.166;2024-03-08T02:34:13;8.70;49.10
14101;DHT22;7127;49.372;8.166;2024-03-08T02:36:40;8.70;49.10
14101;DHT22;7127;49.372;8.166;2024-03-08T02:39:08;8.60;49.00
14101;DHT22;7127;49.372;8.166;2024-03-08T02:41:36;8.60;49.00
14101;DHT22;7127;49.372;8.166;2024-03-08T02:44:03;8.60;49.00
14101;DHT22;7127;49.372;8.166;2024-03-08T02:46:30;8.60;49.00
14101;DHT22;7127;49.372;8.166;2024-03-08T02:48:57;8.60;49.00
14101;DHT22;7127;49.372;8.166;2024-03-08T02:51:24;8.50;48.90
14101;DHT22;7127;49.372;8.166;2024-03-08T02:53:51;8.50;49.00
14101;DHT22;7127;49.372;8.166;2024-03-08T02:56:20;8.40;49.00
14101;DHT22;7127;49.372;8.166;2024-03-08T02:58:47;8.80;49.40
14101;DHT22;7127;49.372;8.166;2024-03-08T03:01:14;8.40;49.00
14101;DHT22;7127;49.372;8.166;2024-03-08T03:03:41;8.40;49.10
14101;DHT22;7127;49.372;8.166;2024-03-08T03:06:08;8.40;49.10
14101;DHT22;7127;49.372;8.166;2024-03-08T03:08:35;8.30;49.10
14101;DHT22;7127;49.372;8.166;2024-03-08T03:11:02;8.30;49.20
14101;DHT22;7127;49.372;8.166;2024-03-08T03:13:30;8.30;49.10
14101;DHT22;7127;49.372;8.166;2024-03-08T03:15:57;8.20;49.00
14101;DHT22;7127;49.372;8.166;2024-03-08T03:18:24;9.00;49.60
14101;DHT22;7127;49.372;8.166;2024-03-08T03:20:52;8.20;49.00
14101;DHT22;7127;49.372;8.166;2024-03-08T03:23:19;8.10;49.00
14101;DHT22;7127;49.372;8.166;2024-03-08T03:25:46;8.10;49.10
14101;DHT22;7127;49.372;8.166;2024-03-08T03:28:13;8.10;49.00
14101;DHT22;7127;49.372;8.166;2024-03-08T03:30:45;8.10;49.10
14101;DHT22;7127;49.372;8.166;2024-03-08T03:33:13;8.00;49.10
14101;DHT22;7127;49.372;8.166;2024-03-08T03:35:40;8.00;49.20
14101;DHT22;7127;49.372;8.166;2024-03-08T03:38:08;8.00;49.20
14101;DHT22;7127;49.372;8.166;2024-03-08T03:40:35;8.00;49.10
14101;DHT22;7127;49.372;8.166;2024-03-08T03:43:03;7.90;49.10
14101;DHT22;7127;49.372;8.166;2024-03-08T03:45:30;7.90;49.10
14101;DHT22;7127;49.372;8.166;2024-03-08T03:48:02;7.90;49.10
14101;DHT22;7127;49.372;8.166;2024-03-08T03:50:29;7.90;49.00
14101;DHT22;7127;49.372;8.166;2024-03-08T03:52:59;7.90;49.00
14101;DHT22;7127;49.372;8.166;2024-03-08T03:55:27;7.90;49.10
14101;DHT22;7127;49.372;8.166;2024-03-08T03:57:54;7.80;49.00
14101;DHT22;7127;49.372;8.166;2024-03-08T04:00:20;7.80;48.90
14101;DHT22;7127;49.372;8.166;2024-03-08T04:02:47;7.80;49.10
14101;DHT22;7127;49.372;8.166;2024-03-08T04:05:15;7.80;49.10
14101;DHT22;7127;49.372;8.166;2024-03-08T04:07:42;7.70;49.10
14101;DHT22;7127;49.372;8.166;2024-03-08T04:10:12;7.80;49.10
14101;DHT22;7127;49.372;8.166;2024-03-08T04:12:40;7.70;49.10
14101;DHT22;7127;49.372;8.166;2024-03-08T04:15:07;7.90;49.20
14101;DHT22;7127;49.372;8.166;2024-03-08T04:17:36;7.60;49.00
14101;DHT22;7127;49.372;8.166;2024-03-08T04:20:04;7.60;49.00
14101;DHT22;7127;49.372;8.166;2024-03-08T04:22:36;7.60;49.00
14101;DHT22;7127;49.372;8.166;2024-03-08T04:25:03;7.60;49.00
14101;DHT22;7127;49.372;8.166;2024-03-08T04:27:32;7.50;48.90
14101;DHT22;7127;49.372;8.166;2024-03-08T04:29:59;7.50;49.00
14101;DHT22;7127;49.372;8.166;2024-03-08T04:32:26;7.50;49.10
14101;DHT22;7127;49.372;8.166;2024-03-08T04:34:55;7.50;49.10
14101;DHT22;7127;49.372;8.166;2024-03-08T04:37:22;7.60;49.20
14101;DHT22;7127;49.372;8.166;2024-03-08T04:39:50;7.40;49.20
14101;DHT22;7127;49.372;8.166;2024-03-08T04:42:17;7.40;49.10
14101;DHT22;7127;49.372;8.166;2024-03-08T04:44:44;7.40;49.20
14101;DHT22;7127;49.372;8.166;2024-03-08T04:47:11;7.40;49.20
14101;DHT22;7127;49.372;8.166;2024-03-08T04:49:38;7.80;49.60
14101;DHT22;7127;49.372;8.166;2024-03-08T04:52:05;7.30;49.30
14101;DHT22;7127;49.372;8.166;2024-03-08T04:54:33;7.30;49.50
14101;DHT22;7127;49.372;8.166;2024-03-08T04:57:01;7.30;49.60
14101;DHT22;7127;49.372;8.166;2024-03-08T04:59:30;7.30;49.60
14101;DHT22;7127;49.372;8.166;2024-03-08T05:01:56;7.30;49.50
14101;DHT22;7127;49.372;8.166;2024-03-08T05:04:23;7.20;49.40
14101;DHT22;7127;49.372;8.166;2024-03-08T05:06:50;7.20;49.50
14101;DHT22;7127;49.372;8.166;2024-03-08T05:09:17;7.20;49.50
14101;DHT22;7127;49.372;8.166;2024-03-08T05:11:45;7.20;49.50
14101;DHT22;7127;49.372;8.166;2024-03-08T05:14:14;7.20;49.60
14101;DHT22;7127;49.372;8.166;2024-03-08T05:16:42;7.20;49.50
14101;DHT22;7127;49.372;8.166;2024-03-08T05:19:09;7.20;49.50
14101;DHT22;7127;49.372;8.166;2024-03-08T05:21:35;7.20;49.50
14101;DHT22;7127;49.372;8.166;2024-03-08T05:24:03;7.10;49.50
14101;DHT22;7127;49.372;8.166;2024-03-08T05:26:30;7.10;49.50
14101;DHT22;7127;49.372;8.166;2024-03-08T05:28:59;7.00;49.40
14101;DHT22;7127;49.372;8.166;2024-03-08T05:31:27;7.00;49.60
14101;DHT22;7127;49.372;8.166;2024-03-08T05:33:54;7.00;49.60
14101;DHT22;7127;49.372;8.166;2024-03-08T05:36:21;7.00;49.70
14101;DHT22;7127;49.372;8.166;2024-03-08T05:38:48;7.00;49.80
14101;DHT22;7127;49.372;8.166;2024-03-08T05:41:16;7.00;49.80
14101;DHT22;7127;49.372;8.166;2024-03-08T05:43:42;6.90;50.30
14101;DHT22;7127;49.372;8.166;2024-03-08T05:46:10;6.90;49.70
14101;DHT22;7127;49.372;8.166;2024-03-08T05:48:38;6.90;49.80
14101;DHT22;7127;49.372;8.166;2024-03-08T05:51:05;6.90;49.90
14101;DHT22;7127;49.372;8.166;2024-03-08T05:53:32;6.80;49.80
14101;DHT22;7127;49.372;8.166;2024-03-08T05:55:59;6.80;50.10
14101;DHT22;7127;49.372;8.166;2024-03-08T05:58:27;6.80;50.30
14101;DHT22;7127;49.372;8.166;2024-03-08T06:00:55;6.70;50.00
14101;DHT22;7127;49.372;8.166;2024-03-08T06:03:22;6.70;50.40
14101;DHT22;7127;49.372;8.166;2024-03-08T06:05:50;6.60;50.40
14101;DHT22;7127;49.372;8.166;2024-03-08T06:08:17;6.60;50.30
14101;DHT22;7127;49.372;8.166;2024-03-08T06:10:44;6.60;50.40
14101;DHT22;7127;49.372;8.166;2024-03-08T06:13:14;6.50;50.80
14101;DHT22;7127;49.372;8.166;2024-03-08T06:15:40;6.50;50.50
14101;DHT22;7127;49.372;8.166;2024-03-08T06:18:07;6.50;50.80
14101;DHT22;7127;49.372;8.166;2024-03-08T06:20:36;6.50;50.60
14101;DHT22;7127;49.372;8.166;2024-03-08T06:23:04;6.50;50.70
14101;DHT22;7127;49.372;8.166;2024-03-08T06:25:31;6.80;51.60
14101;DHT22;7127;49.372;8.166;2024-03-08T06:27:58;6.80;51.10
14101;DHT22;7127;49.372;8.166;2024-03-08T06:30:25;6.50;50.70
14101;DHT22;7127;49.372;8.166;2024-03-08T06:32:52;6.50;50.70
14101;DHT22;7127;49.372;8.166;2024-03-08T06:35:18;6.60;51.00
14101;DHT22;7127;49.372;8.166;2024-03-08T06:37:45;6.60;51.00
14101;DHT22;7127;49.372;8.166;2024-03-08T06:40:14;6.60;51.00
14101;DHT22;7127;49.372;8.166;2024-03-08T06:42:41;6.60;51.00
14101;DHT22;7127;49.372;8.166;2024-03-08T06:45:08;6.70;51.10
14101;DHT22;7127;49.372;8.166;2024-03-08T06:47:35;6.70;51.40
14101;DHT22;7127;49.372;8.166;2024-03-08T06:50:03;6.80;51.30
14101;DHT22;7127;49.372;8.166;2024-03-08T06:52:31;6.80;51.30
14101;DHT22;7127;49.372;8.166;2024-03-08T06:54:58;6.80;51.40
14101;DHT22;7127;49.372;8.166;2024-03-08T06:57:28;6.80;51.30
14101;DHT22;7127;49.372;8.166;2024-03-08T06:59:56;6.90;51.30
14101;DHT22;7127;49.372;8.166;2024-03-08T07:02:23;6.90;51.40
14101;DHT22;7127;49.372;8.166;2024-03-08T07:04:51;7.00;52.10
14101;DHT22;7127;49.372;8.166;2024-03-08T07:07:18;7.00;51.40
14101;DHT22;7127;49.372;8.166;2024-03-08T07:09:46;7.00;51.50
14101;DHT22;7127;49.372;8.166;2024-03-08T07:12:14;7.00;51.50
14101;DHT22;7127;49.372;8.166;2024-03-08T07:14:43;7.10;51.60
14101;DHT22;7127;49.372;8.166;2024-03-08T07:17:11;7.10;51.50
14101;DHT22;7127;49.372;8.166;2024-03-08T07:19:38;7.10;51.50
14101;DHT22;7127;49.372;8.166;2024-03-08T07:22:05;7.90;52.00
14101;DHT22;7127;49.372;8.166;2024-03-08T07:24:34;7.20;51.70
14101;DHT22;7127;49.372;8.166;2024-03-08T07:27:16;7.30;51.70
14101;DHT22;7127;49.372;8.166;2024-03-08T07:29:44;7.30;51.70
14101;DHT22;7127;49.372;8.166;2024-03-08T07:32:11;7.70;51.90
14101;DHT22;7127;49.372;8.166;2024-03-08T07:34:43;7.40;51.70
14101;DHT22;7127;49.372;8.166;2024-03-08T07:37:10;7.50;51.70
14101;DHT22;7127;49.372;8.166;2024-03-08T07:39:37;7.90;52.00
14101;DHT22;7127;49.372;8.166;2024-03-08T07:42:05;7.60;51.70
14101;DHT22;7127;49.372;8.166;2024-03-08T07:44:31;7.60;51.70
14101;DHT22;7127;49.372;8.166;2024-03-08T07:47:00;7.60;51.70
14101;DHT22;7127;49.372;8.166;2024-03-08T07:49:27;9.10;52.90
14101;DHT22;7127;49.372;8.166;2024-03-08T07:51:53;7.70;51.80
14101;DHT22;7127;49.372;8.166;2024-03-08T07:54:20;7.80;51.90
14101;DHT22;7127;49.372;8.166;2024-03-08T07:56:47;7.70;51.80
14101;DHT22;7127;49.372;8.166;2024-03-08T07:59:13;7.80;51.90
14101;DHT22;7127;49.372;8.166;2024-03-08T08:01:40;7.90;51.90
14101;DHT22;7127;49.372;8.166;2024-03-08T08:04:08;7.90;51.90
14101;DHT22;7127;49.372;8.166;2024-03-08T08:06:38;8.00;51.90
14101;DHT22;7127;49.372;8.166;2024-03-08T08:09:06;8.10;51.90
14101;DHT22;7127;49.372;8.166;2024-03-08T08:11:39;8.20;52.00
14101;DHT22;7127;49.372;8.166;2024-03-08T08:14:06;8.20;52.00
14101;DHT22;7127;49.372;8.166;2024-03-08T08:16:34;8.40;52.20
14101;DHT22;7127;49.372;8.166;2024-03-08T08:19:02;8.40;52.10
14101;DHT22;7127;49.372;8.166;2024-03-08T08:21:34;8.50;52.00
14101;DHT22;7127;49.372;8.166;2024-03-08T08:24:02;8.60;52.10
14101;DHT22;7127;49.372;8.166;2024-03-08T08:26:29;8.60;52.00
14101;DHT22;7127;49.372;8.166;2024-03-08T08:28:56;8.70;51.90
14101;DHT22;7127;49.372;8.166;2024-03-08T08:31:23;8.80;51.80
14101;DHT22;7127;49.372;8.166;2024-03-08T08:33:49;8.90;51.80
14101;DHT22;7127;49.372;8.166;2024-03-08T08:36:19;8.90;51.70
14101;DHT22;7127;49.372;8.166;2024-03-08T08:38:47;9.10;51.70
14101;DHT22;7127;49.372;8.166;2024-03-08T08:41:14;9.30;51.70
14101;DHT22;7127;49.372;8.166;2024-03-08T08:43:42;9.20;51.40
14101;DHT22;7127;49.372;8.166;2024-03-08T08:46:10;9.30;51.50
14101;DHT22;7127;49.372;8.166;2024-03-08T08:48:38;9.40;51.30
14101;DHT22;7127;49.372;8.166;2024-03-08T08:51:06;9.40;51.10
14101;DHT22;7127;49.372;8.166;2024-03-08T08:53:37;9.50;50.90
14101;DHT22;7127;49.372;8.166;2024-03-08T08:56:07;9.60;50.80
14101;DHT22;7127;49.372;8.166;2024-03-08T08:58:34;9.60;50.70
14101;DHT22;7127;49.372;8.166;2024-03-08T09:01:01;9.60;50.60
14101;DHT22;7127;49.372;8.166;2024-03-08T09:03:28;9.60;50.60
14101;DHT22;7127;49.372;8.166;2024-03-08T09:05:56;9.70;50.70
14101;DHT22;7127;49.372;8.166;2024-03-08T09:08:28;9.80;50.90
14101;DHT22;7127;49.372;8.166;2024-03-08T09:10:55;9.70;50.60
14101;DHT22;7127;49.372;8.166;2024-03-08T09:13:23;9.80;50.40
14101;DHT22;7127;49.372;8.166;2024-03-08T09:15:50;9.90;50.30
14101;DHT22;7127;49.372;8.166;2024-03-08T09:18:18;10.00;49.50
14101;DHT22;7127;49.372;8.166;2024-03-08T09:20:45;10.00;49.50
14101;DHT22;7127;49.372;8.166;2024-03-08T09:23:12;10.60;49.80
14101;DHT22;7127;49.372;8.166;2024-03-08T09:25:40;10.10;49.30
14101;DHT22;7127;49.372;8.166;2024-03-08T09:28:07;10.40;49.50
14101;DHT22;7127;49.372;8.166;2024-03-08T09:30:43;10.10;49.30
14101;DHT22;7127;49.372;8.166;2024-03-08T09:33:11;10.10;49.30
14101;DHT22;7127;49.372;8.166;2024-03-08T09:35:42;10.40;49.50
14101;DHT22;7127;49.372;8.166;2024-03-08T09:38:10;10.20;49.30
14101;DHT22;7127;49.372;8.166;2024-03-08T09:40:38;10.30;49.30
14101;DHT22;7127;49.372;8.166;2024-03-08T09:43:05;10.30;49.30
14101;DHT22;7127;49.372;8.166;2024-03-08T09:45:37;10.40;49.30
14101;DHT22;7127;49.372;8.166;2024-03-08T09:48:05;10.40;49.10
14101;DHT22;7127;49.372;8.166;2024-03-08T09:50:34;10.40;49.10
14101;DHT22;7127;49.372;8.166;2024-03-08T09:53:01;10.50;49.00
14101;DHT22;7127;49.372;8.166;2024-03-08T09:55:28;10.50;49.40
14101;DHT22;7127;49.372;8.166;2024-03-08T09:58:00;10.50;48.80
14101;DHT22;7127;49.372;8.166;2024-03-08T10:00:52;10.50;48.80
14101;DHT22;7127;49.372;8.166;2024-03-08T10:03:19;10.60;48.90
14101;DHT22;7127;49.372;8.166;2024-03-08T10:05:47;10.60;48.90
14101;DHT22;7127;49.372;8.166;2024-03-08T10:08:14;10.70;48.70
14101;DHT22;7127;49.372;8.166;2024-03-08T10:10:41;10.70;48.40
14101;DHT22;7127;49.372;8.166;2024-03-08T10:13:09;10.70;48.40
14101;DHT22;7127;49.372;8.166;2024-03-08T10:15:39;10.70;48.30
14101;DHT22;7127;49.372;8.166;2024-03-08T10:18:07;10.70;48.20
14101;DHT22;7127;49.372;8.166;2024-03-08T10:20:35;10.70;48.20
14101;DHT22;7127;49.372;8.166;2024-03-08T10:23:03;10.80;48.50
14101;DHT22;7127;49.372;8.166;2024-03-08T10:25:30;10.70;48.40
14101;DHT22;7127;49.372;8.166;2024-03-08T10:27:57;10.70;48.40
14101;DHT22;7127;49.372;8.166;2024-03-08T10:30:24;10.70;48.40
14101;DHT22;7127;49.372;8.166;2024-03-08T10:32:51;10.80;48.40
14101;DHT22;7127;49.372;8.166;2024-03-08T10:35:19;10.80;48.40
14101;DHT22;7127;49.372;8.166;2024-03-08T10:37:47;10.80;48.30
14101;DHT22;7127;49.372;8.166;2024-03-08T10:40:16;10.80;48.20
14101;DHT22;7127;49.372;8.166;2024-03-08T10:42:51;10.80;48.10
14101;DHT22;7127;49.372;8.166;2024-03-08T10:45:26;10.80;48.10
14101;DHT22;7127;49.372;8.166;2024-03-08T10:48:17;10.80;48.20
14101;DHT22;7127;49.372;8.166;2024-03-08T10:50:49;10.80;48.30
14101;DHT22;7127;49.372;8.166;2024-03-08T10:53:18;10.90;48.50
14101;DHT22;7127;49.372;8.166;2024-03-08T10:55:46;10.90;48.50
14101;DHT22;7127;49.372;8.166;2024-03-08T10:58:15;10.90;48.60
14101;DHT22;7127;49.372;8.166;2024-03-08T11:00:42;11.00;48.50
14101;DHT22;7127;49.372;8.166;2024-03-08T11:03:44;11.00;48.20
14101;DHT22;7127;49.372;8.166;2024-03-08T11:06:17;11.10;47.90
14101;DHT22;7127;49.372;8.166;2024-03-08T11:08:44;11.10;47.90
14101;DHT22;7127;49.372;8.166;2024-03-08T11:11:26;11.10;47.90
14101;DHT22;7127;49.372;8.166;2024-03-08T11:13:55;11.20;47.90
14101;DHT22;7127;49.372;8.166;2024-03-08T11:16:39;11.10;47.90
14101;DHT22;7127;49.372;8.166;2024-03-08T11:22:25;11.20;47.90
14101;DHT22;7127;49.372;8.166;2024-03-08T11:24:53;11.30;48.00
14101;DHT22;7127;49.372;8.166;2024-03-08T11:27:20;11.30;47.90
14101;DHT22;7127;49.372;8.166;2024-03-08T11:30:01;11.30;47.90
14101;DHT22;7127;49.372;8.166;2024-03-08T11:32:45;11.30;47.60
14101;DHT22;7127;49.372;8.166;2024-03-08T11:35:18;11.40;47.80
14101;DHT22;7127;49.372;8.166;2024-03-08T11:37:47;11.30;47.70
14101;DHT22;7127;49.372;8.166;2024-03-08T11:40:15;11.60;47.90
14101;DHT22;7127;49.372;8.166;2024-03-08T11:42:44;11.50;47.90
14101;DHT22;7127;49.372;8.166;2024-03-08T11:45:13;11.50;47.90
14101;DHT22;7127;49.372;8.166;2024-03-08T11:47:42;11.50;47.90
14101;DHT22;7127;49.372;8.166;2024-03-08T11:50:11;11.60;47.90
14101;DHT22;7127;49.372;8.166;2024-03-08T11:52:38;11.70;47.70
14101;DHT22;7127;49.372;8.166;2024-03-08T11:55:07;11.70;47.60
14101;DHT22;7127;49.372;8.166;2024-03-08T11:57:34;11.70;47.50
14101;DHT22;7127;49.372;8.166;2024-03-08T12:00:01;11.80;47.40
14101;DHT22;7127;49.372;8.166;2024-03-08T12:02:32;11.80;47.50
14101;DHT22;7127;49.372;8.166;2024-03-08T12:05:01;11.80;47.60
14101;DHT22;7127;49.372;8.166;2024-03-08T12:07:29;11.90;47.50
14101;DHT22;7127;49.372;8.166;2024-03-08T12:10:20;11.90;47.50
14101;DHT22;7127;49.372;8.166;2024-03-08T12:12:48;12.00;47.20
14101;DHT22;7127;49.372;8.166;2024-03-08T12:15:17;12.00;47.50
14101;DHT22;7127;49.372;8.166;2024-03-08T12:17:45;12.10;47.50
14101;DHT22;7127;49.372;8.166;2024-03-08T12:20:15;12.20;47.50
14101;DHT22;7127;49.372;8.166;2024-03-08T12:22:42;12.20;47.40
14101;DHT22;7127;49.372;8.166;2024-03-08T12:25:11;12.30;47.40
14101;DHT22;7127;49.372;8.166;2024-03-08T12:27:39;12.30;47.30
14101;DHT22;7127;49.372;8.166;2024-03-08T12:30:19;12.40;47.10
14101;DHT22;7127;49.372;8.166;2024-03-08T12:32:53;12.40;47.00
14101;DHT22;7127;49.372;8.166;2024-03-08T12:35:22;12.50;47.00
14101;DHT22;7127;49.372;8.166;2024-03-08T12:37:51;12.50;47.00
14101;DHT22;7127;49.372;8.166;2024-03-08T12:40:19;12.50;46.80
14101;DHT22;7127;49.372;8.166;2024-03-08T12:42:48;12.60;47.00
14101;DHT22;7127;49.372;8.166;2024-03-08T12:45:15;12.60;46.90
14101;DHT22;7127;49.372;8.166;2024-03-08T12:47:41;12.70;47.10
14101;DHT22;7127;49.372;8.166;2024-03-08T12:50:10;12.80;47.10
14101;DHT22;7127;49.372;8.166;2024-03-08T12:52:37;12.80;47.10
14101;DHT22;7127;49.372;8.166;2024-03-08T12:55:04;12.80;47.00
14101;DHT22;7127;49.372;8.166;2024-03-08T12:57:33;12.90;46.80
14101;DHT22;7127;49.372;8.166;2024-03-08T13:00:02;12.90;46.70
14101;DHT22;7127;49.372;8.166;2024-03-08T13:02:29;12.90;46.80
14101;DHT22;7127;49.372;8.166;2024-03-08T13:04:57;12.90;46.80
14101;DHT22;7127;49.372;8.166;2024-03-08T13:07:25;13.00;46.90
14101;DHT22;7127;49.372;8.166;2024-03-08T13:09:52;13.00;46.90
14101;DHT22;7127;49.372;8.166;2024-03-08T13:12:20;13.10;47.10
14101;DHT22;7127;49.372;8.166;2024-03-08T13:14:47;13.10;46.70
14101;DHT22;7127;49.372;8.166;2024-03-08T13:17:15;13.20;46.70
14101;DHT22;7127;49.372;8.166;2024-03-08T13:19:43;13.20;46.60
14101;DHT22;7127;49.372;8.166;2024-03-08T13:22:10;13.20;46.40
14101;DHT22;7127;49.372;8.166;2024-03-08T13:24:38;13.30;46.20
14101;DHT22;7127;49.372;8.166;2024-03-08T13:27:07;13.30;45.80
14101;DHT22;7127;49.372;8.166;2024-03-08T13:29:45;13.30;45.70
14101;DHT22;7127;49.372;8.166;2024-03-08T13:32:12;13.30;45.60
14101;DHT22;7127;49.372;8.166;2024-03-08T13:34:42;13.30;45.80
14101;DHT22;7127;49.372;8.166;2024-03-08T13:37:09;13.20;45.70
14101;DHT22;7127;49.372;8.166;2024-03-08T13:39:37;13.20;45.60
14101;DHT22;7127;49.372;8.166;2024-03-08T13:42:09;13.20;45.50
14101;DHT22;7127;49.372;8.166;2024-03-08T13:44:39;13.20;45.50
14101;DHT22;7127;49.372;8.166;2024-03-08T13:47:06;13.10;45.40
14101;DHT22;7127;49.372;8.166;2024-03-08T13:49:32;13.10;45.40
14101;DHT22;7127;49.372;8.166;2024-03-08T13:52:01;13.10;45.60
14101;DHT22;7127;49.372;8.166;2024-03-08T13:54:28;13.10;45.80
14101;DHT22;7127;49.372;8.166;2024-03-08T13:56:57;13.00;45.80
14101;DHT22;7127;49.372;8.166;2024-03-08T13:59:23;13.00;45.90
14101;DHT22;7127;49.372;8.166;2024-03-08T14:01:55;13.00;45.90
14101;DHT22;7127;49.372;8.166;2024-03-08T14:04:21;13.00;46.00
14101;DHT22;7127;49.372;8.166;2024-03-08T14:06:49;13.10;45.90
14101;DHT22;7127;49.372;8.166;2024-03-08T14:09:18;13.00;46.00
14101;DHT22;7127;49.372;8.166;2024-03-08T14:11:45;13.00;46.10
14101;DHT22;7127;49.372;8.166;2024-03-08T14:14:12;13.00;46.30
14101;DHT22;7127;49.372;8.166;2024-03-08T14:16:39;13.00;46.20
14101;DHT22;7127;49.372;8.166;2024-03-08T14:19:06;13.00;46.20
14101;DHT22;7127;49.372;8.166;2024-03-08T14:21:35;13.10;46.20
14101;DHT22;7127;49.372;8.166;2024-03-08T14:24:05;13.00;46.00
14101;DHT22;7127;49.372;8.166;2024-03-08T14:26:33;13.00;45.90
14101;DHT22;7127;49.372;8.166;2024-03-08T14:29:02;13.10;45.90
14101;DHT22;7127;49.372;8.166;2024-03-08T14:31:30;13.10;45.90
14101;DHT22;7127;49.372;8.166;2024-03-08T14:33:57;13.10;46.00
14101;DHT22;7127;49.372;8.166;2024-03-08T14:36:24;13.10;46.00
14101;DHT22;7127;49.372;8.166;2024-03-08T14:38:51;13.00;45.90
14101;DHT22;7127;49.372;8.166;2024-03-08T14:41:18;13.00;45.90
14101;DHT22;7127;49.372;8.166;2024-03-08T14:43:47;13.00;46.00
14101;DHT22;7127;49.372;8.166;2024-03-08T14:46:14;13.00;46.60
14101;DHT22;7127;49.372;8.166;2024-03-08T14:48:42;13.00;46.10
14101;DHT22;7127;49.372;8.166;2024-03-08T14:51:09;13.00;46.10
14101;DHT22;7127;49.372;8.166;2024-03-08T14:53:40;13.00;46.10
14101;DHT22;7127;49.372;8.166;2024-03-08T14:56:07;13.00;46.30
14101;DHT22;7127;49.372;8.166;2024-03-08T14:58:34;13.10;46.50
14101;DHT22;7127;49.372;8.166;2024-03-08T15:01:05;13.00;46.40
14101;DHT22;7127;49.372;8.166;2024-03-08T15:03:35;13.20;46.50
14101;DHT22;7127;49.372;8.166;2024-03-08T15:06:03;13.00;46.20
14101;DHT22;7127;49.372;8.166;2024-03-08T15:08:34;13.00;46.10
14101;DHT22;7127;49.372;8.166;2024-03-08T15:11:00;13.00;46.10
14101;DHT22;7127;49.372;8.166;2024-03-08T15:13:27;13.10;46.10
14101;DHT22;7127;49.372;8.166;2024-03-08T15:16:09;13.10;46.10
14101;DHT22;7127;49.372;8.166;2024-03-08T15:18:42;13.00;45.90
14101;DHT22;7127;49.372;8.166;2024-03-08T15:21:13;13.10;46.10
14101;DHT22;7127;49.372;8.166;2024-03-08T15:23:46;13.10;46.00
14101;DHT22;7127;49.372;8.166;2024-03-08T15:28:53;13.10;46.00
14101;DHT22;7127;49.372;8.166;2024-03-08T15:31:27;13.10;46.00
14101;DHT22;7127;49.372;8.166;2024-03-08T15:33:56;13.10;46.00
14101;DHT22;7127;49.372;8.166;2024-03-08T15:36:27;13.20;46.10
14101;DHT22;7127;49.372;8.166;2024-03-08T15:38:56;13.10;46.00
14101;DHT22;7127;49.372;8.166;2024-03-08T15:41:23;13.10;46.00
14101;DHT22;7127;49.372;8.166;2024-03-08T15:43:52;13.20;46.00
14101;DHT22;7127;49.372;8.166;2024-03-08T15:46:20;13.10;46.00
14101;DHT22;7127;49.372;8.166;2024-03-08T15:48:49;13.20;46.10
14101;DHT22;7127;49.372;8.166;2024-03-08T15:51:16;13.20;46.10
14101;DHT22;7127;49.372;8.166;2024-03-08T15:53:44;13.20;46.20
14101;DHT22;7127;49.372;8.166;2024-03-08T15:56:18;13.10;46.10
14101;DHT22;7127;49.372;8.166;2024-03-08T15:58:45;13.20;46.10
14101;DHT22;7127;49.372;8.166;2024-03-08T16:01:12;13.20;46.10
14101;DHT22;7127;49.372;8.166;2024-03-08T16:03:41;13.30;46.20
14101;DHT22;7127;49.372;8.166;2024-03-08T16:06:10;13.20;46.10
14101;DHT22;7127;49.372;8.166;2024-03-08T16:08:36;13.80;46.50